createdAt,value
2019-05-09T00:00:34.462Z,96704.75
2019-05-09T00:03:00.526Z,96692.25
2019-05-09T00:05:26.663Z,96693.63
2019-05-09T00:07:53.258Z,96691.37
2019-05-09T00:10:19.334Z,96695.54
2019-05-09T00:12:45.302Z,96685.24
2019-05-09T00:15:13.502Z,96679.56
2019-05-09T00:17:39.361Z,96672.81
2019-05-09T00:20:05.603Z,96670.32
2019-05-09T00:22:33.241Z,96667.38
2019-05-09T00:24:59.214Z,96664.82
2019-05-09T00:27:25.269Z,96678.64
2019-05-09T00:29:53.149Z,96675.01
2019-05-09T00:32:19.370Z,96674.05
2019-05-09T00:34:45.372Z,96682.84
2019-05-09T00:37:13.414Z,96684.04
2019-05-09T00:39:39.251Z,96679.66
2019-05-09T00:42:05.441Z,96688.09
2019-05-09T00:44:31.341Z,96692.80
2019-05-09T00:46:57.469Z,96692.16
2019-05-09T00:49:23.738Z,96697.55
2019-05-09T00:51:49.678Z,96702.70
2019-05-09T00:54:15.691Z,96702.64
2019-05-09T00:56:43.641Z,96696.25
2019-05-09T00:59:10.711Z,96690.86
2019-05-09T01:01:36.667Z,96681.82
2019-05-09T01:04:04.360Z,96698.16
2019-05-09T01:06:30.594Z,96690.27
2019-05-09T01:08:56.493Z,96571.27
2019-05-09T01:11:24.466Z,96694.34
2019-05-09T01:13:51.237Z,96692.77
2019-05-09T01:16:17.174Z,96696.56
2019-05-09T01:18:43.840Z,96695.83
2019-05-09T01:21:09.953Z,96700.22
2019-05-09T01:23:35.982Z,96702.83
2019-05-09T01:26:03.838Z,96700.30
2019-05-09T01:28:29.842Z,96702.29
2019-05-09T01:30:55.778Z,96691.67
2019-05-09T01:33:24.053Z,96707.94
2019-05-09T01:35:49.513Z,96709.37
2019-05-09T01:38:15.472Z,96719.10
2019-05-09T01:40:43.734Z,96723.80
2019-05-09T01:43:09.337Z,96716.96
2019-05-09T01:45:35.467Z,96719.69
2019-05-09T01:48:03.270Z,96724.05
2019-05-09T01:50:29.215Z,96730.18
2019-05-09T01:52:55.336Z,96726.09
2019-05-09T01:55:23.475Z,96733.56
2019-05-09T01:57:49.540Z,96736.67
2019-05-09T02:00:16.227Z,96731.62
2019-05-09T02:02:43.331Z,96730.11
2019-05-09T02:05:09.778Z,96735.12
2019-05-09T02:07:35.914Z,96732.86
2019-05-09T02:10:04.021Z,96733.50
2019-05-09T02:12:30.036Z,96734.13
2019-05-09T02:14:56.135Z,96733.97
2019-05-09T02:17:23.249Z,96730.08
2019-05-09T02:19:49.404Z,96679.06
2019-05-09T02:22:15.364Z,96738.48
2019-05-09T02:24:41.270Z,96744.17
2019-05-09T02:27:07.180Z,96739.12
2019-05-09T02:29:33.834Z,96743.11
2019-05-09T02:31:59.861Z,96752.42
2019-05-09T02:34:25.821Z,96740.23
2019-05-09T02:36:51.766Z,96741.03
2019-05-09T02:39:18.831Z,96747.28
2019-05-09T02:42:01.198Z,96741.75
2019-05-09T02:44:13.384Z,96750.89
2019-05-09T02:46:39.334Z,96749.28
2019-05-09T02:49:08.564Z,96758.75
2019-05-09T02:51:33.271Z,96748.86
2019-05-09T02:53:59.172Z,96745.77
2019-05-09T02:56:25.223Z,96750.63
2019-05-09T02:58:51.328Z,96755.19
2019-05-09T03:01:18.961Z,96761.05
2019-05-09T03:03:48.054Z,96756.20
2019-05-09T03:06:13.082Z,96763.15
2019-05-09T03:08:39.190Z,96764.11
2019-05-09T03:11:05.283Z,96764.16
2019-05-09T03:13:31.560Z,96764.55
2019-05-09T03:15:58.651Z,96772.78
2019-05-09T03:18:24.834Z,96771.03
2019-05-09T03:20:50.793Z,96771.65
2019-05-09T03:23:19.166Z,96764.77
2019-05-09T03:25:48.251Z,96769.15
2019-05-09T03:28:13.057Z,96771.78
2019-05-09T03:30:40.049Z,96784.70
2019-05-09T03:33:09.933Z,96781.66
2019-05-09T03:35:34.030Z,96785.22
2019-05-09T03:37:59.958Z,96788.92
2019-05-09T03:40:27.229Z,96793.59
2019-05-09T03:42:53.325Z,96784.56
2019-05-09T03:45:19.431Z,96786.06
2019-05-09T03:47:45.372Z,96786.91
2019-05-09T03:50:11.324Z,96789.62
2019-05-09T03:52:37.532Z,96781.77
2019-05-09T03:55:07.326Z,96778.77
2019-05-09T03:57:33.320Z,96785.91
2019-05-09T03:59:59.273Z,96782.97
2019-05-09T04:02:25.333Z,96783.47
2019-05-09T04:04:51.241Z,96782.27
2019-05-09T04:07:18.667Z,96777.37
2019-05-09T04:09:44.702Z,96790.81
2019-05-09T04:12:10.615Z,96782.89
2019-05-09T04:14:37.554Z,96789.27
2019-05-09T04:17:03.827Z,96787.17
2019-05-09T04:19:31.394Z,96794.33
2019-05-09T04:21:57.754Z,96793.17
2019-05-09T04:24:23.829Z,96797.66
2019-05-09T04:26:49.930Z,96798.56
2019-05-09T04:29:18.211Z,96795.62
2019-05-09T04:31:43.730Z,96804.71
2019-05-09T04:34:09.964Z,96803.53
2019-05-09T04:36:37.783Z,96801.48
2019-05-09T04:39:07.661Z,96799.52
2019-05-09T04:41:33.585Z,96796.88
2019-05-09T04:43:59.549Z,96785.68
2019-05-09T04:46:27.695Z,96788.17
2019-05-09T04:48:54.184Z,96779.98
2019-05-09T04:51:21.420Z,96776.08
2019-05-09T04:53:48.093Z,96778.68
2019-05-09T04:56:14.053Z,96774.20
2019-05-09T04:58:40.102Z,96784.64
2019-05-09T05:01:07.310Z,96784.29
2019-05-09T05:03:33.565Z,96786.75
2019-05-09T05:05:59.490Z,96789.56
2019-05-09T05:08:25.525Z,96789.56
2019-05-09T05:10:51.583Z,96796.01
2019-05-09T05:13:26.266Z,96788.83
2019-05-09T05:15:47.498Z,96796.56
2019-05-09T05:18:13.338Z,96800.19
2019-05-09T05:20:39.332Z,96792.43
2019-05-09T05:23:08.247Z,96791.22
2019-05-09T05:25:34.507Z,96789.95
2019-05-09T05:28:00.928Z,96787.09
2019-05-09T05:30:28.393Z,96785.03
2019-05-09T05:32:54.529Z,96784.61
2019-05-09T05:35:20.632Z,96788.24
2019-05-09T05:37:49.510Z,96788.73
2019-05-09T05:40:17.819Z,96793.52
2019-05-09T05:42:43.889Z,96800.59
2019-05-09T05:45:09.994Z,96794.51
2019-05-09T05:47:37.943Z,96797.83
2019-05-09T05:50:04.170Z,96796.00
2019-05-09T05:52:30.147Z,96802.14
2019-05-09T05:54:58.071Z,96797.27
2019-05-09T05:57:23.953Z,96803.69
2019-05-09T05:59:49.918Z,96799.45
2019-05-09T06:02:17.814Z,96790.51
2019-05-09T06:04:43.963Z,96807.31
2019-05-09T06:07:10.093Z,96795.17
2019-05-09T06:09:38.103Z,96796.69
2019-05-09T06:12:04.422Z,96795.38
2019-05-09T06:14:30.600Z,96800.37
2019-05-09T06:16:58.763Z,96804.75
2019-05-09T06:19:24.697Z,96811.91
2019-05-09T06:21:52.396Z,96807.51
2019-05-09T06:24:18.655Z,96810.44
2019-05-09T06:26:44.722Z,96816.19
2019-05-09T06:29:10.666Z,96811.94
2019-05-09T06:31:37.613Z,96814.41
2019-05-09T06:34:03.984Z,96817.70
2019-05-09T06:36:29.946Z,96813.41
2019-05-09T06:38:58.559Z,96819.89
2019-05-09T06:41:23.853Z,96816.01
2019-05-09T06:43:51.860Z,96815.60
2019-05-09T06:46:18.341Z,96821.94
2019-05-09T06:48:44.632Z,96837.52
2019-05-09T06:51:10.887Z,96828.84
2019-05-09T06:53:38.072Z,96843.52
2019-05-09T06:56:04.791Z,96836.19
2019-05-09T06:58:30.953Z,96838.05
2019-05-09T07:00:58.444Z,96836.02
2019-05-09T07:03:24.470Z,96836.95
2019-05-09T07:05:50.374Z,96836.42
2019-05-09T07:08:18.336Z,96834.47
2019-05-09T07:10:44.333Z,96835.16
2019-05-09T07:13:10.283Z,96834.98
2019-05-09T07:15:37.652Z,96832.50
2019-05-09T07:18:03.786Z,96826.49
2019-05-09T07:20:29.752Z,96832.75
2019-05-09T07:22:58.058Z,96831.37
2019-05-09T07:25:23.780Z,96825.98
2019-05-09T07:27:49.707Z,96826.52
2019-05-09T07:30:17.992Z,96826.52
2019-05-09T07:32:44.071Z,96820.28
2019-05-09T07:35:10.149Z,96820.12
2019-05-09T07:37:37.971Z,96825.41
2019-05-09T07:40:05.665Z,96823.32
2019-05-09T07:42:31.594Z,96818.36
2019-05-09T07:44:59.108Z,96782.58
2019-05-09T07:47:28.098Z,96820.41
2019-05-09T07:49:53.843Z,96820.41
2019-05-09T07:52:19.759Z,96819.39
2019-05-09T07:54:48.179Z,96812.19
2019-05-09T07:57:13.886Z,96820.03
2019-05-09T07:59:39.798Z,96816.36
2019-05-09T08:02:05.737Z,96820.55
2019-05-09T08:04:31.642Z,96817.08
2019-05-09T08:06:57.977Z,96810.28
2019-05-09T08:09:25.079Z,96803.75
2019-05-09T08:11:51.021Z,96802.67
2019-05-09T08:14:17.719Z,96801.28
2019-05-09T08:16:47.365Z,96790.31
2019-05-09T08:19:12.894Z,96780.47
2019-05-09T08:21:38.838Z,96783.80
2019-05-09T08:24:04.754Z,96783.83
2019-05-09T08:26:30.689Z,96787.14
2019-05-09T08:28:58.422Z,96786.52
2019-05-09T08:31:24.463Z,96787.55
2019-05-09T08:33:50.371Z,96758.05
2019-05-09T08:36:19.822Z,96788.19
2019-05-09T08:38:47.611Z,96788.30
2019-05-09T08:41:13.209Z,96787.52
2019-05-09T08:43:41.162Z,96785.63
2019-05-09T08:46:07.967Z,96786.84
2019-05-09T08:48:34.397Z,96787.18
2019-05-09T08:51:00.409Z,96786.11
2019-05-09T08:53:27.603Z,96794.10
2019-05-09T08:55:53.775Z,96787.72
2019-05-09T08:58:20.210Z,96783.58
2019-05-09T09:00:48.398Z,96788.07
2019-05-09T09:03:14.240Z,96786.03
2019-05-09T09:05:43.264Z,96791.80
2019-05-09T09:08:09.363Z,96794.26
2019-05-09T09:10:38.060Z,96786.55
2019-05-09T09:13:03.414Z,96792.19
2019-05-09T09:15:56.138Z,96786.40
2019-05-09T09:17:57.853Z,96789.55
2019-05-09T09:20:24.066Z,96785.57
2019-05-09T09:22:50.103Z,96784.25
2019-05-09T09:25:18.334Z,96400.36
2019-05-09T09:27:47.527Z,96779.44
2019-05-09T09:30:20.226Z,96782.94
2019-05-09T09:32:39.847Z,96783.92
2019-05-09T09:35:08.014Z,96777.45
2019-05-09T09:37:47.839Z,96774.81
2019-05-09T09:40:04.759Z,96779.16
2019-05-09T09:42:30.699Z,96773.88
2019-05-09T09:44:58.565Z,96776.14
2019-05-09T09:47:24.544Z,96775.09
2019-05-09T09:49:50.446Z,96767.02
2019-05-09T09:52:18.750Z,96771.98
2019-05-09T09:54:44.576Z,96777.53
2019-05-09T09:57:10.518Z,96777.25
2019-05-09T09:59:40.183Z,96771.30
2019-05-09T10:02:04.575Z,96769.22
2019-05-09T10:04:30.607Z,96762.63
2019-05-09T10:06:58.326Z,96762.05
2019-05-09T10:09:24.370Z,96760.08
2019-05-09T10:11:50.417Z,96764.06
2019-05-09T10:14:18.520Z,96755.70
2019-05-09T10:16:44.352Z,96751.92
2019-05-09T10:19:10.254Z,96759.75
2019-05-09T10:21:38.201Z,96759.04
2019-05-09T10:24:04.123Z,96762.81
2019-05-09T10:26:30.316Z,96752.23
2019-05-09T10:28:56.223Z,96763.63
2019-05-09T10:31:22.162Z,96754.28
2019-05-09T10:33:48.401Z,96749.61
2019-05-09T10:36:14.729Z,96750.48
2019-05-09T10:38:40.703Z,96733.94
2019-05-09T10:41:10.979Z,96745.14
2019-05-09T10:43:38.812Z,96747.27
2019-05-09T10:46:03.169Z,96747.73
2019-05-09T10:48:29.332Z,96741.06
2019-05-09T10:51:03.520Z,96756.20
2019-05-09T10:53:23.520Z,96723.78
2019-05-09T10:55:49.599Z,96750.22
2019-05-09T10:58:15.734Z,96749.33
2019-05-09T11:00:41.857Z,96746.63
2019-05-09T11:03:08.783Z,96745.57
2019-05-09T11:05:35.122Z,96754.23
2019-05-09T11:08:01.196Z,96753.59
2019-05-09T11:10:40.806Z,96752.05
2019-05-09T11:13:09.656Z,96749.93
2019-05-09T11:15:37.528Z,96750.18
2019-05-09T11:18:03.793Z,96751.75
2019-05-09T11:20:30.020Z,96755.14
2019-05-09T11:22:58.184Z,96759.11
2019-05-09T11:25:24.109Z,96760.72
2019-05-09T11:28:06.978Z,96750.62
2019-05-09T11:30:18.576Z,96746.63
2019-05-09T11:32:44.616Z,96744.47
2019-05-09T11:35:10.823Z,96750.66
2019-05-09T11:37:40.635Z,96753.74
2019-05-09T11:40:08.527Z,96751.12
2019-05-09T11:42:35.109Z,96751.19
2019-05-09T11:45:09.191Z,96754.47
2019-05-09T11:47:44.761Z,96756.58
2019-05-09T11:50:08.764Z,96750.59
2019-05-09T11:52:38.296Z,96750.95
2019-05-09T11:55:28.875Z,96747.28
2019-05-09T11:57:40.068Z,96743.31
2019-05-09T12:00:08.276Z,96745.70
2019-05-09T12:02:34.859Z,96747.19
2019-05-09T12:05:00.906Z,96741.77
2019-05-09T12:07:28.812Z,96741.89
2019-05-09T12:09:54.865Z,96745.27
2019-05-09T12:12:20.899Z,96743.91
2019-05-09T12:14:48.368Z,96749.67
2019-05-09T12:17:14.749Z,96756.38
2019-05-09T12:19:40.667Z,96752.74
2019-05-09T12:22:08.930Z,96755.30
2019-05-09T12:24:34.684Z,96755.38
2019-05-09T12:27:03.037Z,96752.63
2019-05-09T12:29:28.896Z,96761.48
2019-05-09T12:31:54.805Z,96750.66
2019-05-09T12:34:20.873Z,96752.80
2019-05-09T12:36:49.291Z,96751.86
2019-05-09T12:39:14.626Z,96746.47
2019-05-09T12:41:40.642Z,96747.41
2019-05-09T12:44:08.860Z,96747.45
2019-05-09T12:46:34.569Z,96750.41
2019-05-09T12:49:00.478Z,96745.15
2019-05-09T12:51:28.190Z,96643.20
2019-05-09T12:53:54.351Z,96747.34
2019-05-09T12:56:20.374Z,96751.74
2019-05-09T12:58:47.734Z,96742.63
2019-05-09T13:01:17.998Z,96749.39
2019-05-09T13:03:43.989Z,96751.81
2019-05-09T13:06:10.142Z,96755.90
2019-05-09T13:08:38.335Z,96748.84
2019-05-09T13:11:03.942Z,96751.35
2019-05-09T13:13:32.169Z,96753.73
2019-05-09T13:15:58.241Z,96753.95
2019-05-09T13:18:25.476Z,96753.62
2019-05-09T13:20:52.139Z,96747.20
2019-05-09T13:23:18.460Z,96746.61
2019-05-09T13:25:44.392Z,96742.83
2019-05-09T13:28:10.522Z,96738.98
2019-05-09T13:30:38.032Z,96739.22
2019-05-09T13:33:07.261Z,96746.86
2019-05-09T13:35:31.991Z,96750.03
2019-05-09T13:37:59.669Z,96745.17
2019-05-09T13:40:29.065Z,96746.67
2019-05-09T13:42:53.710Z,96746.83
2019-05-09T13:45:19.846Z,96741.66
2019-05-09T13:47:47.755Z,96742.47
2019-05-09T13:50:13.699Z,96746.91
2019-05-09T13:52:39.648Z,96743.27
2019-05-09T13:55:08.493Z,96744.08
2019-05-09T13:57:34.323Z,96738.93
2019-05-09T14:00:00.410Z,96740.98
2019-05-09T14:02:28.555Z,96747.66
2019-05-09T14:04:54.217Z,96740.22
2019-05-09T14:07:20.159Z,96748.18
2019-05-09T14:09:48.374Z,96750.01
2019-05-09T14:12:14.102Z,96757.57
2019-05-09T14:14:40.120Z,96764.03
2019-05-09T14:17:08.533Z,96766.77
2019-05-09T14:19:43.609Z,96768.33
2019-05-09T14:22:02.725Z,96763.63
2019-05-09T14:24:30.890Z,96768.91
2019-05-09T14:26:58.238Z,96771.86
2019-05-09T14:29:24.344Z,96775.23
2019-05-09T14:31:50.437Z,96771.63
2019-05-09T14:34:19.387Z,96766.31
2019-05-09T14:36:45.717Z,96763.41
2019-05-09T14:39:12.145Z,96764.93
2019-05-09T14:41:39.156Z,96764.56
2019-05-09T14:44:05.425Z,96765.89
2019-05-09T14:46:31.495Z,96764.41
2019-05-09T14:48:58.407Z,96769.77
2019-05-09T14:51:24.630Z,96766.12
2019-05-09T14:53:50.615Z,96764.70
2019-05-09T14:56:16.532Z,96761.22
2019-05-09T14:58:42.521Z,96760.66
2019-05-09T15:01:09.655Z,96761.66
2019-05-09T15:03:35.566Z,96760.22
2019-05-09T15:06:02.863Z,96762.16
2019-05-09T15:08:28.930Z,96757.89
2019-05-09T15:10:55.115Z,96759.58
2019-05-09T15:13:21.340Z,96757.35
2019-05-09T15:15:48.086Z,96755.47
2019-05-09T15:18:14.209Z,96757.44
2019-05-09T15:20:40.320Z,96754.21
2019-05-09T15:23:08.453Z,96760.72
2019-05-09T15:25:34.122Z,96755.71
2019-05-09T15:28:00.440Z,96758.98
2019-05-09T15:30:28.672Z,96767.59
2019-05-09T15:32:54.732Z,96755.22
2019-05-09T15:35:21.875Z,96760.63
2019-05-09T15:37:48.203Z,96760.56
2019-05-09T15:40:14.607Z,96753.09
2019-05-09T15:42:40.619Z,96758.67
2019-05-09T15:45:07.805Z,96758.49
2019-05-09T15:47:34.137Z,96761.55
2019-05-09T15:50:15.536Z,96759.67
2019-05-09T15:52:28.660Z,96759.20
2019-05-09T15:54:54.832Z,96763.45
2019-05-09T15:57:20.855Z,96761.05
2019-05-09T15:59:47.939Z,96755.11
2019-05-09T16:02:14.114Z,96764.41
2019-05-09T16:04:40.514Z,96757.70
2019-05-09T16:07:06.929Z,96752.13
2019-05-09T16:09:32.830Z,96757.06
2019-05-09T16:11:58.765Z,96761.59
2019-05-09T16:14:24.815Z,96755.53
2019-05-09T16:16:50.783Z,96775.60
2019-05-09T16:19:16.777Z,96761.09
2019-05-09T16:21:42.760Z,96761.68
2019-05-09T16:24:08.904Z,96767.17
2019-05-09T16:26:35.028Z,96759.89
2019-05-09T16:29:01.338Z,96763.94
2019-05-09T16:31:38.410Z,96766.05
2019-05-09T16:34:05.628Z,96766.83
2019-05-09T16:36:31.631Z,96767.09
2019-05-09T16:38:58.474Z,96772.34
2019-05-09T16:41:24.767Z,96774.33
2019-05-09T16:43:50.783Z,96776.61
2019-05-09T16:46:18.106Z,96778.42
2019-05-09T16:48:44.326Z,96772.67
2019-05-09T16:51:11.337Z,96775.77
2019-05-09T16:53:37.278Z,96774.68
2019-05-09T16:56:04.323Z,96776.55
2019-05-09T16:58:30.280Z,96776.78
2019-05-09T17:00:56.903Z,96777.47
2019-05-09T17:03:22.842Z,96780.02
2019-05-09T17:05:48.849Z,96775.95
2019-05-09T17:08:17.590Z,96787.45
2019-05-09T17:10:43.004Z,96781.34
2019-05-09T17:13:09.318Z,96785.44
2019-05-09T17:15:35.513Z,96794.19
2019-05-09T17:18:02.882Z,96798.61
2019-05-09T17:20:28.852Z,96799.13
2019-05-09T17:23:09.987Z,96801.30
2019-05-09T17:25:22.641Z,96800.81
2019-05-09T17:27:48.779Z,96804.28
2019-05-09T17:30:15.138Z,96806.64
2019-05-09T17:32:41.149Z,96816.38
2019-05-09T17:35:07.536Z,96815.13
2019-05-09T17:37:33.538Z,96813.36
2019-05-09T17:40:00.616Z,96813.83
2019-05-09T17:42:27.709Z,96814.63
2019-05-09T17:44:53.840Z,96817.70
2019-05-09T17:47:19.942Z,96817.70
2019-05-09T17:49:48.079Z,96820.38
2019-05-09T17:52:13.801Z,96815.67
2019-05-09T17:54:39.741Z,96820.29
2019-05-09T17:57:07.946Z,96815.16
2019-05-09T17:59:34.143Z,96826.22
2019-05-09T18:02:00.083Z,96827.66
2019-05-09T18:04:28.587Z,96829.46
2019-05-09T18:06:54.238Z,96824.54
2019-05-09T18:09:20.243Z,96829.53
2019-05-09T18:11:48.155Z,96832.31
2019-05-09T18:14:14.119Z,96833.72
2019-05-09T18:16:40.178Z,96842.98
2019-05-09T18:19:08.566Z,96845.24
2019-05-09T18:21:49.599Z,96845.52
2019-05-09T18:24:02.960Z,96849.11
2019-05-09T18:26:29.846Z,96855.50
2019-05-09T18:28:59.454Z,96855.50
2019-05-09T18:31:23.921Z,96853.28
2019-05-09T18:33:50.109Z,96857.92
2019-05-09T18:36:16.179Z,96861.55
2019-05-09T18:38:42.137Z,96859.25
2019-05-09T18:41:10.249Z,96864.33
2019-05-09T18:43:36.398Z,96861.80
2019-05-09T18:46:02.509Z,96861.80
2019-05-09T18:48:28.573Z,96891.77
2019-05-09T18:50:54.598Z,96870.02
2019-05-09T18:53:20.628Z,96876.89
2019-05-09T18:55:46.835Z,96876.89
2019-05-09T18:58:12.797Z,96875.63
2019-05-09T19:00:38.876Z,96882.23
2019-05-09T19:03:04.999Z,96884.57
2019-05-09T19:05:31.153Z,96885.65
2019-05-09T19:07:57.485Z,96887.48
2019-05-09T19:10:23.929Z,96893.91
2019-05-09T19:12:50.091Z,96891.88
2019-05-09T19:15:16.751Z,96903.06
2019-05-09T19:17:42.776Z,96903.06
2019-05-09T19:20:08.987Z,96908.63
2019-05-09T19:22:36.025Z,96912.59
2019-05-09T19:25:02.164Z,96918.89
2019-05-09T19:27:29.537Z,96919.91
2019-05-09T19:29:57.438Z,96927.17
2019-05-09T19:32:23.459Z,96929.75
2019-05-09T19:34:49.367Z,96938.17
2019-05-09T19:37:15.460Z,96941.77
2019-05-09T19:39:42.451Z,96948.91
2019-05-09T19:42:08.359Z,96978.59
2019-05-09T19:44:34.311Z,96950.59
2019-05-09T19:47:01.610Z,96970.98
2019-05-09T19:49:27.965Z,96954.03
2019-05-09T19:51:53.867Z,96951.61
2019-05-09T19:54:19.973Z,96960.27
2019-05-09T19:56:46.185Z,96959.70
2019-05-09T19:59:12.165Z,96967.82
2019-05-09T20:01:38.299Z,96980.65
2019-05-09T20:04:04.519Z,96976.92
2019-05-09T20:06:30.645Z,96973.84
2019-05-09T20:08:56.691Z,96973.24
2019-05-09T20:11:22.704Z,96986.37
2019-05-09T20:13:48.986Z,96991.44
2019-05-09T20:16:14.944Z,96992.23
2019-05-09T20:18:40.880Z,96997.66
2019-05-09T20:21:06.985Z,97003.72
2019-05-09T20:23:33.179Z,97008.72
2019-05-09T20:25:59.273Z,97015.09
2019-05-09T20:28:25.493Z,97014.35
2019-05-09T20:30:51.931Z,97011.79
2019-05-09T20:33:19.099Z,97024.16
2019-05-09T20:35:47.244Z,97023.13
2019-05-09T20:38:13.895Z,97026.13
2019-05-09T20:40:39.977Z,97032.95
2019-05-09T20:43:06.039Z,97044.81
2019-05-09T20:45:32.187Z,97041.69
2019-05-09T20:47:58.292Z,97042.64
2019-05-09T20:50:24.372Z,97047.62
2019-05-09T20:53:08.647Z,97047.73
2019-05-09T20:55:21.340Z,97046.80
2019-05-09T20:57:47.434Z,97055.69
2019-05-09T21:00:13.714Z,97052.47
2019-05-09T21:02:39.765Z,97058.70
2019-05-09T21:05:06.246Z,97057.52
2019-05-09T21:07:32.234Z,97060.73
2019-05-09T21:09:58.241Z,97061.68
2019-05-09T21:12:24.456Z,97060.60
2019-05-09T21:14:50.383Z,97068.14
2019-05-09T21:17:16.392Z,97030.56
2019-05-09T21:19:42.469Z,97064.33
2019-05-09T21:22:08.511Z,97073.29
2019-05-09T21:24:34.451Z,97072.61
2019-05-09T21:27:00.423Z,97076.06
2019-05-09T21:29:26.333Z,97086.07
2019-05-09T21:31:52.359Z,97093.70
2019-05-09T21:34:18.463Z,97093.20
2019-05-09T21:36:44.470Z,97097.95
2019-05-09T21:39:10.504Z,97102.85
2019-05-09T21:41:38.922Z,97103.48
2019-05-09T21:44:05.026Z,97105.06
2019-05-09T21:46:30.971Z,97099.58
2019-05-09T21:48:56.907Z,97106.74
2019-05-09T21:51:23.806Z,97104.23
2019-05-09T21:53:49.755Z,97120.28
2019-05-09T21:56:15.647Z,97126.48
2019-05-09T21:58:41.587Z,97123.16
2019-05-09T22:01:11.376Z,97125.92
2019-05-09T22:03:37.877Z,97128.79
2019-05-09T22:06:03.977Z,97132.23
2019-05-09T22:08:30.020Z,97134.09
2019-05-09T22:10:56.133Z,97128.44
2019-05-09T22:13:22.275Z,97130.91
2019-05-09T22:15:48.177Z,97135.33
2019-05-09T22:18:14.560Z,97137.27
2019-05-09T22:20:40.751Z,97144.64
2019-05-09T22:23:06.846Z,97164.40
2019-05-09T22:25:33.152Z,97158.20
2019-05-09T22:27:59.052Z,97163.85
2019-05-09T22:30:25.168Z,97162.00
2019-05-09T22:32:51.118Z,97162.00
2019-05-09T22:35:17.385Z,97161.30
2019-05-09T22:37:43.639Z,97162.66
2019-05-09T22:40:09.844Z,97162.16
2019-05-09T22:42:35.779Z,97160.23
2019-05-09T22:45:03.442Z,97161.77
2019-05-09T22:47:29.379Z,97162.77
2019-05-09T22:49:55.285Z,97157.04
2019-05-09T22:52:21.503Z,97160.34
2019-05-09T22:54:47.633Z,97157.63
2019-05-09T22:57:13.560Z,97164.09
2019-05-09T22:59:39.492Z,97157.66
2019-05-09T23:02:06.997Z,97156.38
2019-05-09T23:04:33.042Z,97155.59
2019-05-09T23:07:00.075Z,97161.61
2019-05-09T23:09:26.018Z,97163.51
2019-05-09T23:11:51.913Z,97162.53
2019-05-09T23:14:17.859Z,97163.08
2019-05-09T23:16:45.055Z,97164.70
2019-05-09T23:19:11.267Z,97166.26
2019-05-09T23:21:37.235Z,97173.06
2019-05-09T23:24:03.431Z,97168.76
2019-05-09T23:26:29.340Z,97169.84
2019-05-09T23:28:55.458Z,97172.73
2019-05-09T23:31:21.590Z,97176.59
2019-05-09T23:33:47.656Z,97178.91
2019-05-09T23:36:13.550Z,97175.70
2019-05-09T23:38:39.863Z,97173.13
2019-05-09T23:41:05.765Z,97175.87
2019-05-09T23:43:31.708Z,97202.17
2019-05-09T23:45:57.614Z,97168.76
2019-05-09T23:48:23.730Z,97170.07
2019-05-09T23:50:49.635Z,97178.08
2019-05-09T23:53:17.694Z,97176.15
2019-05-09T23:55:43.774Z,97181.72
2019-05-09T23:58:09.718Z,97184.27
